Time;durP1;ratioP1;P1;durP2;ratioP2;P2;SDS_P1;SDS_P2;PMS_P1;PMS_P2;Temp;Humidity;BMP_temperature;BMP_pressure;BME280_temperature;BME280_humidity;BME280_pressure;Samples;Min_cycle;Max_cycle;Signal;HPM_P1;HPM_P2
2023/03/17 00:02:00;;;;;;;131.03;103.37;;;;;;;;;;1728227;83;25461;-56
2023/03/17 00:04:27;;;;;;;155.45;106.35;;;;;;;;;;1728148;82;25480;-56
2023/03/17 00:06:56;;;;;;;130.43;103.33;;;;;;;;;;1728245;83;25066;-55
2023/03/17 00:09:28;;;;;;;133.57;98.87;;;;;;;;;;1728194;82;27427;-55
2023/03/17 00:11:58;;;;;;;153.00;104.60;;;;;;;;;;1728192;83;25481;-57
2023/03/17 00:14:30;;;;;;;79.07;35.68;;;;;;;;;;1728334;83;25489;-55
2023/03/17 00:16:57;;;;;;;127.10;50.33;;;;;;;;;;1728282;83;25501;-57
2023/03/17 00:19:31;;;;;;;126.95;47.93;;;;;;;;;;1707411;83;25459;-58
2023/03/17 00:22:00;;;;;;;120.75;49.67;;;;;;;;;;1728216;83;27392;-57
2023/03/17 00:24:29;;;;;;;86.42;34.23;;;;;;;;;;1728314;83;25367;-56
2023/03/17 00:26:58;;;;;;;111.37;42.78;;;;;;;;;;1728108;82;25407;-58
2023/03/17 00:29:27;;;;;;;104.80;42.67;;;;;;;;;;1728250;83;25576;-54
2023/03/17 00:31:57;;;;;;;113.75;48.10;;;;;;;;;;1728256;82;25315;-57
2023/03/17 00:34:26;;;;;;;113.72;49.58;;;;;;;;;;1728159;83;27396;-54
2023/03/17 00:36:54;;;;;;;126.87;52.45;;;;;;;;;;1728241;83;32856;-57
2023/03/17 00:39:24;;;;;;;115.35;51.00;;;;;;;;;;1728297;83;25571;-57
2023/03/17 00:41:52;;;;;;;120.05;51.18;;;;;;;;;;1728283;82;25526;-57
2023/03/17 00:44:20;;;;;;;118.82;50.58;;;;;;;;;;1728326;82;25525;-57
2023/03/17 00:46:47;;;;;;;115.92;51.18;;;;;;;;;;1731910;82;28282;-55
2023/03/17 00:49:18;;;;;;;137.57;55.52;;;;;;;;;;1738291;82;25304;-57
2023/03/17 00:55:27;;;;;;;115.35;52.25;;;;;;;;;;1744711;81;25286;-54
2023/03/17 00:57:55;;;;;;;131.32;53.40;;;;;;;;;;1748020;82;25370;-56
2023/03/17 01:00:31;;;;;;;125.30;55.17;;;;;;;;;;1748012;82;29497;-57
2023/03/17 01:02:59;;;;;;;123.38;52.98;;;;;;;;;;1747955;82;25330;-58
2023/03/17 01:05:28;;;;;;;131.07;54.75;;;;;;;;;;1747985;82;26866;-56
2023/03/17 01:07:57;;;;;;;126.40;55.90;;;;;;;;;;1747955;82;25568;-58
2023/03/17 01:10:29;;;;;;;120.70;54.10;;;;;;;;;;1747925;81;25538;-58
2023/03/17 01:12:58;;;;;;;124.25;51.00;;;;;;;;;;1747881;81;27356;-57
2023/03/17 01:15:30;;;;;;;106.20;50.05;;;;;;;;;;1747864;81;25478;-56
2023/03/17 01:18:01;;;;;;;108.90;49.85;;;;;;;;;;1747894;82;25343;-55
2023/03/17 01:20:34;;;;;;;112.32;45.35;;;;;;;;;;1747817;82;26065;-57
2023/03/17 01:23:06;;;;;;;111.52;51.70;;;;;;;;;;1747950;82;25537;-58
2023/03/17 01:25:33;;;;;;;119.20;50.28;;;;;;;;;;1747839;81;29508;-57
2023/03/17 01:28:02;;;;;;;118.15;52.83;;;;;;;;;;1724312;82;25516;-55
2023/03/17 01:30:35;;;;;;;118.37;52.83;;;;;;;;;;1747943;82;25320;-57
2023/03/17 01:33:07;;;;;;;114.70;50.50;;;;;;;;;;1747853;82;25528;-55
2023/03/17 01:35:40;;;;;;;110.22;49.27;;;;;;;;;;1747965;82;25473;-55
2023/03/17 01:38:10;;;;;;;108.78;45.08;;;;;;;;;;1747943;82;27379;-56
2023/03/17 01:40:45;;;;;;;130.72;53.87;;;;;;;;;;1747712;82;25347;-54
2023/03/17 01:43:22;;;;;;;124.53;54.45;;;;;;;;;;1747850;82;25480;-56
2023/03/17 01:46:16;;;;;;;111.00;49.40;;;;;;;;;;1747815;82;25570;-54
2023/03/17 01:48:49;;;;;;;104.70;47.27;;;;;;;;;;1748056;82;25520;-57
2023/03/17 01:51:26;;;;;;;123.38;52.70;;;;;;;;;;1747882;82;27454;-54
2023/03/17 01:53:55;;;;;;;123.00;53.42;;;;;;;;;;1747297;82;25665;-57
2023/03/17 01:56:23;;;;;;;119.35;52.78;;;;;;;;;;1747973;81;25419;-57
2023/03/17 01:58:51;;;;;;;107.70;50.83;;;;;;;;;;1747970;81;25693;-57
2023/03/17 02:01:23;;;;;;;118.45;51.42;;;;;;;;;;1747905;81;25372;-55
2023/03/17 02:03:52;;;;;;;120.02;52.08;;;;;;;;;;1747121;81;27443;-54
2023/03/17 02:06:21;;;;;;;115.72;51.77;;;;;;;;;;1748056;81;25478;-55
2023/03/17 02:08:49;;;;;;;115.45;50.38;;;;;;;;;;1721543;82;25357;-55
2023/03/17 02:11:21;;;;;;;115.15;50.92;;;;;;;;;;1750759;82;25585;-57
2023/03/17 02:13:50;;;;;;;118.22;50.23;;;;;;;;;;1747961;82;25466;-57
2023/03/17 02:16:17;;;;;;;102.45;48.02;;;;;;;;;;1747953;81;27418;-58
2023/03/17 02:18:44;;;;;;;99.85;47.73;;;;;;;;;;1747755;82;25427;-58
2023/03/17 02:21:39;;;;;;;109.83;50.28;;;;;;;;;;1747795;81;25814;-58
2023/03/17 02:24:11;;;;;;;98.40;40.83;;;;;;;;;;1747932;81;25464;-57
2023/03/17 02:26:38;;;;;;;109.42;48.10;;;;;;;;;;1749117;82;25291;-57
2023/03/17 02:29:06;;;;;;;103.67;46.40;;;;;;;;;;1750024;82;27503;-55
2023/03/17 02:31:34;;;;;;;103.78;48.17;;;;;;;;;;1747724;82;25603;-55
2023/03/17 02:34:03;;;;;;;107.95;47.85;;;;;;;;;;1747941;82;25288;-56
2023/03/17 02:36:30;;;;;;;101.35;47.67;;;;;;;;;;1747756;81;25543;-54
2023/03/17 02:38:57;;;;;;;104.03;46.35;;;;;;;;;;1747857;82;25428;-54
2023/03/17 02:41:24;;;;;;;101.22;45.70;;;;;;;;;;1749707;81;29581;-57
2023/03/17 02:43:52;;;;;;;102.12;48.50;;;;;;;;;;1719101;82;25384;-55
2023/03/17 02:46:19;;;;;;;103.27;48.50;;;;;;;;;;1750851;82;25547;-55
2023/03/17 02:48:48;;;;;;;99.62;48.00;;;;;;;;;;1750780;81;25475;-56
2023/03/17 02:51:15;;;;;;;102.02;48.40;;;;;;;;;;1750984;81;25447;-56
2023/03/17 02:53:42;;;;;;;104.20;48.02;;;;;;;;;;1750901;81;27412;-57
2023/03/17 02:56:09;;;;;;;96.63;46.63;;;;;;;;;;1750818;82;25339;-56
2023/03/17 02:58:38;;;;;;;101.15;45.58;;;;;;;;;;1749501;82;25363;-56
2023/03/17 03:01:05;;;;;;;95.28;46.20;;;;;;;;;;1748031;81;25505;-54
2023/03/17 03:03:33;;;;;;;101.07;45.12;;;;;;;;;;1747999;82;25565;-57
2023/03/17 03:06:00;;;;;;;95.57;45.65;;;;;;;;;;1747988;82;27342;-57
2023/03/17 03:08:30;;;;;;;99.30;44.40;;;;;;;;;;1748051;81;25991;-58
2023/03/17 03:10:59;;;;;;;85.87;42.67;;;;;;;;;;1748130;82;25472;-58
2023/03/17 03:13:26;;;;;;;91.90;42.03;;;;;;;;;;1748096;82;25562;-57
2023/03/17 03:15:53;;;;;;;96.80;43.20;;;;;;;;;;1748074;82;25458;-57
2023/03/17 03:18:20;;;;;;;95.60;42.93;;;;;;;;;;1748078;81;27380;-58
2023/03/17 03:20:47;;;;;;;99.37;44.45;;;;;;;;;;1748006;81;25342;-58
2023/03/17 03:23:16;;;;;;;90.97;35.08;;;;;;;;;;1748042;82;25470;-54
2023/03/17 03:25:43;;;;;;;88.47;39.90;;;;;;;;;;1748036;81;25523;-57
2023/03/17 03:28:10;;;;;;;86.65;38.33;;;;;;;;;;1721402;82;25506;-57
2023/03/17 03:30:39;;;;;;;88.17;36.73;;;;;;;;;;1750856;81;27335;-57
2023/03/17 03:33:13;;;;;;;90.92;38.95;;;;;;;;;;1750800;82;25274;-57
2023/03/17 03:35:40;;;;;;;77.90;34.20;;;;;;;;;;1750894;82;25505;-57
2023/03/17 03:38:11;;;;;;;91.70;42.05;;;;;;;;;;1747920;82;25556;-55
2023/03/17 03:40:40;;;;;;;81.47;39.80;;;;;;;;;;1747990;81;25495;-56
2023/03/17 03:43:12;;;;;;;83.60;42.10;;;;;;;;;;1747971;82;27377;-56
2023/03/17 03:45:42;;;;;;;86.78;41.45;;;;;;;;;;1747812;82;25459;-57
2023/03/17 03:48:09;;;;;;;80.70;34.53;;;;;;;;;;1738648;82;28481;-58
2023/03/17 03:50:38;;;;;;;82.25;34.45;;;;;;;;;;1732906;82;25451;-58
2023/03/17 03:53:06;;;;;;;78.25;32.15;;;;;;;;;;1733183;82;25475;-57
2023/03/17 03:55:33;;;;;;;89.30;41.63;;;;;;;;;;1733099;82;27415;-56
2023/03/17 03:58:00;;;;;;;90.45;43.58;;;;;;;;;;1711171;82;25312;-57
2023/03/17 04:00:33;;;;;;;98.72;44.05;;;;;;;;;;1732916;82;25446;-57
2023/03/17 04:03:00;;;;;;;89.28;43.15;;;;;;;;;;1733006;82;25830;-56
2023/03/17 04:05:33;;;;;;;89.85;42.90;;;;;;;;;;1733139;82;25490;-57
2023/03/17 04:08:05;;;;;;;81.85;33.02;;;;;;;;;;1733003;82;27806;-56
2023/03/17 04:10:39;;;;;;;75.95;32.42;;;;;;;;;;1712131;82;25160;-56
2023/03/17 04:13:08;;;;;;;69.72;29.15;;;;;;;;;;1732994;82;25363;-53
2023/03/17 04:15:36;;;;;;;76.40;36.48;;;;;;;;;;1732843;82;25520;-53
2023/03/17 04:18:08;;;;;;;77.50;35.85;;;;;;;;;;1733083;82;25297;-54
2023/03/17 04:20:37;;;;;;;79.58;37.70;;;;;;;;;;1732928;82;27354;-54
2023/03/17 04:23:08;;;;;;;78.17;37.40;;;;;;;;;;1732857;82;25321;-53
2023/03/17 04:25:35;;;;;;;79.03;37.80;;;;;;;;;;1732907;82;25862;-57
2023/03/17 04:28:07;;;;;;;77.27;34.50;;;;;;;;;;1732983;82;25502;-53
2023/03/17 04:30:35;;;;;;;73.62;32.40;;;;;;;;;;1732927;82;25491;-56
2023/03/17 04:33:05;;;;;;;74.27;35.15;;;;;;;;;;1732879;82;27403;-54
2023/03/17 04:35:34;;;;;;;81.53;37.23;;;;;;;;;;1711998;82;25337;-55
2023/03/17 04:38:01;;;;;;;69.67;34.45;;;;;;;;;;1732852;82;25888;-54
2023/03/17 04:40:30;;;;;;;75.75;34.30;;;;;;;;;;1732977;82;25536;-57
2023/03/17 04:42:57;;;;;;;73.72;34.63;;;;;;;;;;1732905;82;25502;-57
2023/03/17 04:45:24;;;;;;;71.65;33.90;;;;;;;;;;1732853;82;29599;-57
2023/03/17 04:47:53;;;;;;;48.23;22.77;;;;;;;;;;1716958;81;25647;-56
2023/03/17 04:50:20;;;;;;;74.47;32.50;;;;;;;;;;1721970;82;25665;-57
2023/03/17 04:52:47;;;;;;;69.97;33.78;;;;;;;;;;1717205;82;25774;-57
2023/03/17 04:55:19;;;;;;;73.47;34.20;;;;;;;;;;1748186;82;25445;-56
2023/03/17 04:57:47;;;;;;;72.92;33.73;;;;;;;;;;1747888;82;27375;-56
2023/03/17 05:00:18;;;;;;;79.22;35.63;;;;;;;;;;1747780;81;25470;-56
2023/03/17 05:02:46;;;;;;;72.15;34.35;;;;;;;;;;1747908;81;25113;-57
2023/03/17 05:05:13;;;;;;;70.22;32.78;;;;;;;;;;1747783;81;25550;-56
2023/03/17 05:07:40;;;;;;;68.05;30.43;;;;;;;;;;1747545;82;25500;-56
2023/03/17 05:10:12;;;;;;;67.78;33.60;;;;;;;;;;1747925;82;27361;-57
2023/03/17 05:12:39;;;;;;;59.58;28.35;;;;;;;;;;1747871;82;25855;-56
2023/03/17 05:15:11;;;;;;;69.90;33.73;;;;;;;;;;1747728;82;25419;-56
2023/03/17 05:17:38;;;;;;;77.25;34.92;;;;;;;;;;1747801;82;27702;-57
2023/03/17 05:20:12;;;;;;;71.75;33.90;;;;;;;;;;1747931;82;25467;-56
2023/03/17 05:22:39;;;;;;;66.77;32.48;;;;;;;;;;1747889;82;27455;-56
2023/03/17 05:25:10;;;;;;;65.42;31.42;;;;;;;;;;1747709;82;25440;-57
2023/03/17 05:27:38;;;;;;;72.30;34.43;;;;;;;;;;1747849;81;25462;-58
2023/03/17 05:30:12;;;;;;;74.53;33.70;;;;;;;;;;1747924;82;25528;-56
2023/03/17 05:32:39;;;;;;;67.10;30.12;;;;;;;;;;1747929;82;25486;-56
2023/03/17 05:35:09;;;;;;;64.87;30.75;;;;;;;;;;1747829;81;27347;-57
2023/03/17 05:37:36;;;;;;;76.77;35.48;;;;;;;;;;1747858;81;25786;-55
2023/03/17 05:40:11;;;;;;;76.67;34.03;;;;;;;;;;1747955;82;25507;-58
2023/03/17 05:42:38;;;;;;;68.55;30.15;;;;;;;;;;1747874;82;25492;-57
2023/03/17 05:45:11;;;;;;;70.45;34.23;;;;;;;;;;1747859;81;25452;-58
2023/03/17 05:47:40;;;;;;;67.58;33.75;;;;;;;;;;1745520;82;27406;-57
2023/03/17 05:50:12;;;;;;;69.62;34.00;;;;;;;;;;1732930;82;25277;-56
2023/03/17 05:52:42;;;;;;;75.15;35.50;;;;;;;;;;1732908;82;25453;-57
2023/03/17 05:55:11;;;;;;;74.07;34.83;;;;;;;;;;1732827;82;26116;-57
2023/03/17 05:57:41;;;;;;;71.70;34.08;;;;;;;;;;1733089;82;25439;-56
2023/03/17 06:00:15;;;;;;;73.30;34.15;;;;;;;;;;1732938;82;27430;-59
2023/03/17 06:02:42;;;;;;;72.92;35.00;;;;;;;;;;1732847;82;25510;-57
2023/03/17 06:05:11;;;;;;;66.50;31.82;;;;;;;;;;1733008;82;25492;-57
2023/03/17 06:07:40;;;;;;;67.32;32.40;;;;;;;;;;1732899;82;25703;-57
2023/03/17 06:10:13;;;;;;;70.12;34.98;;;;;;;;;;1711721;82;25487;-58
2023/03/17 06:12:41;;;;;;;64.87;35.68;;;;;;;;;;1732844;82;27366;-56
2023/03/17 06:15:11;;;;;;;71.25;36.45;;;;;;;;;;1710982;82;25522;-55
2023/03/17 06:17:44;;;;;;;71.37;35.75;;;;;;;;;;1732894;82;25476;-56
2023/03/17 06:20:17;;;;;;;63.60;32.48;;;;;;;;;;1732717;82;25497;-55
2023/03/17 06:22:44;;;;;;;70.75;34.83;;;;;;;;;;1732651;82;25511;-56
2023/03/17 06:25:14;;;;;;;73.60;37.05;;;;;;;;;;1732827;82;27591;-57
2023/03/17 06:27:42;;;;;;;71.50;35.85;;;;;;;;;;1732976;82;25522;-58
2023/03/17 06:30:14;;;;;;;68.67;30.72;;;;;;;;;;1732986;82;25462;-59
2023/03/17 06:32:42;;;;;;;62.40;31.95;;;;;;;;;;1712225;82;25766;-60
2023/03/17 06:35:09;;;;;;;67.47;34.05;;;;;;;;;;1733018;82;25489;-59
2023/03/17 06:37:36;;;;;;;68.12;34.18;;;;;;;;;;1711209;82;27454;-60
2023/03/17 06:40:10;;;;;;;65.28;33.25;;;;;;;;;;1732725;82;25545;-57
2023/03/17 06:42:37;;;;;;;67.75;32.73;;;;;;;;;;1733125;82;25515;-60
2023/03/17 06:45:10;;;;;;;70.45;33.78;;;;;;;;;;1732957;82;25586;-55
2023/03/17 06:47:38;;;;;;;61.28;30.27;;;;;;;;;;1732901;82;25319;-56
2023/03/17 06:50:11;;;;;;;61.80;30.05;;;;;;;;;;1702398;83;27607;-57
2023/03/17 06:52:40;;;;;;;64.42;31.68;;;;;;;;;;1702294;84;25533;-56
2023/03/17 06:55:10;;;;;;;56.13;29.92;;;;;;;;;;1702011;83;25476;-56
2023/03/17 06:57:37;;;;;;;;;;;;;;;;;;1703646;84;26481;-57
2023/03/17 07:00:08;;;;;;;51.92;27.48;;;;;;;;;;1701226;83;26092;-55
2023/03/17 07:02:36;;;;;;;63.20;28.57;;;;;;;;;;1701720;83;27349;-57
2023/03/17 07:05:08;;;;;;;58.30;28.83;;;;;;;;;;1701352;83;26157;-57
2023/03/17 07:07:35;;;;;;;55.83;25.90;;;;;;;;;;1701328;83;26081;-58
2023/03/17 07:10:11;;;;;;;52.43;29.45;;;;;;;;;;1701393;83;25553;-58
2023/03/17 07:12:39;;;;;;;58.13;27.80;;;;;;;;;;1702279;83;25365;-59
2023/03/17 07:15:11;;;;;;;57.23;27.90;;;;;;;;;;1702282;83;28204;-58
2023/03/17 07:17:45;;;;;;;48.95;23.90;;;;;;;;;;1702171;84;25321;-59
2023/03/17 07:20:17;;;;;;;49.75;25.02;;;;;;;;;;1702284;83;25314;-58
2023/03/17 07:22:44;;;;;;;47.93;25.40;;;;;;;;;;1681844;84;25605;-57
2023/03/17 07:25:12;;;;;;;50.00;25.25;;;;;;;;;;1702345;83;25532;-57
2023/03/17 07:27:41;;;;;;;50.23;27.15;;;;;;;;;;1702222;83;27136;-58
2023/03/17 07:30:17;;;;;;;50.78;26.12;;;;;;;;;;1702520;83;25853;-56
2023/03/17 07:32:48;;;;;;;49.13;25.82;;;;;;;;;;1701923;84;25467;-57
2023/03/17 07:35:18;;;;;;;55.12;27.05;;;;;;;;;;1702281;83;25565;-56
2023/03/17 07:37:46;;;;;;;43.02;24.00;;;;;;;;;;1702278;83;25523;-53
2023/03/17 07:40:17;;;;;;;43.15;23.90;;;;;;;;;;1706175;83;27699;-57
2023/03/17 07:42:44;;;;;;;46.83;24.23;;;;;;;;;;1680493;84;25537;-58
2023/03/17 07:45:14;;;;;;;29.10;16.52;;;;;;;;;;1702426;83;25831;-56
2023/03/17 07:47:45;;;;;;;86.63;78.47;;;;;;;;;;1702066;83;25557;-58
2023/03/17 07:50:16;;;;;;;95.77;86.43;;;;;;;;;;1746210;82;25448;-57
2023/03/17 07:52:43;;;;;;;96.17;87.35;;;;;;;;;;1748100;82;27411;-55
2023/03/17 07:55:14;;;;;;;97.50;87.65;;;;;;;;;;1747861;81;25348;-58
2023/03/17 07:57:42;;;;;;;36.15;20.02;;;;;;;;;;1748071;81;25065;-57
2023/03/17 08:00:16;;;;;;;59.40;45.60;;;;;;;;;;1748049;81;25549;-57
2023/03/17 08:02:45;;;;;;;93.00;83.33;;;;;;;;;;1748081;82;25378;-58
2023/03/17 08:05:16;;;;;;;87.25;79.10;;;;;;;;;;1747555;81;27493;-58
2023/03/17 08:07:43;;;;;;;97.90;89.17;;;;;;;;;;1747950;81;25895;-56
2023/03/17 08:10:17;;;;;;;56.83;50.03;;;;;;;;;;1748002;82;25463;-53
2023/03/17 08:12:44;;;;;;;38.53;27.82;;;;;;;;;;1747991;82;25565;-57
2023/03/17 08:15:13;;;;;;;33.63;16.87;;;;;;;;;;1748110;82;25362;-58
2023/03/17 08:17:40;;;;;;;31.95;17.23;;;;;;;;;;1748020;82;28255;-57
2023/03/17 08:20:14;;;;;;;64.72;58.73;;;;;;;;;;1747943;81;25308;-58
2023/03/17 08:22:42;;;;;;;31.85;16.15;;;;;;;;;;1747927;82;25453;-58
2023/03/17 08:25:11;;;;;;;94.90;86.90;;;;;;;;;;1742118;81;25566;-55
2023/03/17 08:27:40;;;;;;;93.67;85.65;;;;;;;;;;1742389;82;25445;-58
2023/03/17 08:30:15;;;;;;;93.47;85.80;;;;;;;;;;1748056;82;27414;-58
2023/03/17 08:32:47;;;;;;;32.80;15.93;;;;;;;;;;1722973;82;25840;-58
2023/03/17 08:35:17;;;;;;;27.22;16.07;;;;;;;;;;1748548;81;25490;-58
2023/03/17 08:37:47;;;;;;;22.32;12.45;;;;;;;;;;1747924;82;25980;-58
2023/03/17 08:40:18;;;;;;;86.47;79.85;;;;;;;;;;1748128;81;25379;-57
2023/03/17 08:42:49;;;;;;;52.13;47.10;;;;;;;;;;1748030;81;27655;-58
2023/03/17 08:45:20;;;;;;;85.45;79.15;;;;;;;;;;1747925;82;25148;-55
2023/03/17 08:47:49;;;;;;;22.77;17.62;;;;;;;;;;1747929;81;25523;-53
2023/03/17 08:50:21;;;;;;;84.85;78.28;;;;;;;;;;1734827;82;28958;-58
2023/03/17 08:52:54;;;;;;;84.65;78.05;;;;;;;;;;1728233;81;25543;-58
2023/03/17 08:55:21;;;;;;;23.18;17.87;;;;;;;;;;1728309;82;27065;-56
2023/03/17 08:57:48;;;;;;;15.32;9.70;;;;;;;;;;1727780;82;25409;-58
2023/03/17 09:00:25;;;;;;;18.77;9.98;;;;;;;;;;1727491;83;25690;-57
2023/03/17 09:02:52;;;;;;;7.72;4.28;;;;;;;;;;1728256;83;25657;-57
2023/03/17 09:05:21;;;;;;;10.10;4.80;;;;;;;;;;1728398;82;25356;-59
2023/03/17 09:07:48;;;;;;;8.55;5.08;;;;;;;;;;1706175;83;27443;-56
2023/03/17 09:10:21;;;;;;;8.75;4.50;;;;;;;;;;1728208;83;25534;-57
2023/03/17 09:12:46;;;;;;;8.03;4.45;;;;;;;;;;1726405;83;34620;-59
2023/03/17 09:15:15;;;;;;;6.70;3.98;;;;;;;;;;1728323;82;25576;-58
2023/03/17 09:17:44;;;;;;;6.67;3.65;;;;;;;;;;1728425;82;25316;-56
2023/03/17 09:20:16;;;;;;;6.40;3.98;;;;;;;;;;1727598;82;27397;-56
2023/03/17 09:22:43;;;;;;;8.35;4.10;;;;;;;;;;1731774;82;25907;-56
2023/03/17 09:25:11;;;;;;;7.90;3.50;;;;;;;;;;1728195;83;25328;-58
2023/03/17 09:27:39;;;;;;;28.27;26.35;;;;;;;;;;1728173;82;25492;-55
2023/03/17 09:30:13;;;;;;;12.43;5.30;;;;;;;;;;1705962;83;25554;-54
2023/03/17 09:32:41;;;;;;;8.70;6.12;;;;;;;;;;1728138;83;27500;-55
2023/03/17 09:35:11;;;;;;;7.60;4.50;;;;;;;;;;1728233;82;25602;-58
2023/03/17 09:37:38;;;;;;;5.20;3.50;;;;;;;;;;1728355;83;25478;-57
2023/03/17 09:40:13;;;;;;;8.65;4.65;;;;;;;;;;1728326;83;25537;-57
2023/03/17 09:42:49;;;;;;;7.75;4.17;;;;;;;;;;1728276;83;25465;-56
2023/03/17 09:45:30;;;;;;;7.58;4.28;;;;;;;;;;1612248;88;27451;-56
2023/03/17 09:48:24;;;;;;;11.60;4.33;;;;;;;;;;1618546;88;25557;-61
2023/03/17 09:51:09;;;;;;;7.90;4.17;;;;;;;;;;1642020;86;25657;-59
2023/03/17 09:54:01;;;;;;;6.85;3.85;;;;;;;;;;1656839;86;25655;-62
2023/03/17 09:56:33;;;;;;;8.20;4.17;;;;;;;;;;1657288;85;25492;-61
2023/03/17 09:59:13;;;;;;;7.97;4.87;;;;;;;;;;1627694;86;27508;-63
2023/03/17 10:01:42;;;;;;;7.33;4.70;;;;;;;;;;1630459;87;25550;-63
2023/03/17 10:04:10;;;;;;;8.78;4.67;;;;;;;;;;1630569;88;25780;-62
2023/03/17 10:06:43;;;;;;;10.38;4.78;;;;;;;;;;1630426;88;25644;-62
2023/03/17 10:09:33;;;;;;;9.70;4.83;;;;;;;;;;1640726;87;25416;-62
2023/03/17 10:12:09;;;;;;;9.10;4.87;;;;;;;;;;1628023;86;28475;-62
2023/03/17 10:14:56;;;;;;;7.55;4.95;;;;;;;;;;1630432;88;25555;-62
2023/03/17 10:17:27;;;;;;;7.50;4.05;;;;;;;;;;1629196;88;25559;-62
2023/03/17 10:19:59;;;;;;;8.88;4.80;;;;;;;;;;1629066;88;25824;-54
2023/03/17 10:22:31;;;;;;;7.75;4.12;;;;;;;;;;1670840;83;25618;-50
2023/03/17 10:25:02;;;;;;;71.82;67.27;;;;;;;;;;1711267;83;28680;-51
2023/03/17 10:27:33;;;;;;;32.33;29.52;;;;;;;;;;1722616;83;25594;-59
2023/03/17 10:30:00;;;;;;;7.28;5.17;;;;;;;;;;1722691;83;25522;-56
2023/03/17 10:32:33;;;;;;;9.25;5.28;;;;;;;;;;1722720;83;25502;-54
2023/03/17 10:35:01;;;;;;;8.60;4.70;;;;;;;;;;1697082;83;25498;-52
2023/03/17 10:37:35;;;;;;;8.10;4.67;;;;;;;;;;1698483;83;29597;-53
2023/03/17 10:39:59;;;;;;;11.03;6.20;;;;;;;;;;1719006;82;25306;-53
2023/03/17 10:42:32;;;;;;;6.60;4.40;;;;;;;;;;1748168;82;25388;-53
2023/03/17 10:45:19;;;;;;;5.50;4.28;;;;;;;;;;1747886;82;25525;-51
2023/03/17 10:47:50;;;;;;;6.92;4.75;;;;;;;;;;1740375;82;25474;-50
2023/03/17 10:50:32;;;;;;;8.43;4.60;;;;;;;;;;1717345;82;27439;-53
2023/03/17 10:53:06;;;;;;;7.65;4.50;;;;;;;;;;1747314;81;25543;-55
2023/03/17 10:55:41;;;;;;;6.58;4.17;;;;;;;;;;1748011;82;25110;-53
2023/03/17 10:58:33;;;;;;;7.03;4.53;;;;;;;;;;1747953;82;25622;-51
2023/03/17 11:01:18;;;;;;;9.70;4.97;;;;;;;;;;1747694;82;25472;-51
2023/03/17 11:03:50;;;;;;;7.30;4.85;;;;;;;;;;1647181;86;27391;-52
2023/03/17 11:06:21;;;;;;;7.47;4.50;;;;;;;;;;1647287;87;25557;-54
2023/03/17 11:08:55;;;;;;;6.58;4.65;;;;;;;;;;1647123;87;25629;-57
2023/03/17 11:11:28;;;;;;;7.30;5.17;;;;;;;;;;1647198;85;26558;-52
2023/03/17 11:14:15;;;;;;;6.37;4.12;;;;;;;;;;1647341;87;25406;-56
2023/03/17 11:16:57;;;;;;;8.35;4.33;;;;;;;;;;1647252;87;27407;-52
2023/03/17 11:19:56;;;;;;;6.78;4.47;;;;;;;;;;1647364;87;25583;-52
2023/03/17 11:22:29;;;;;;;6.87;4.53;;;;;;;;;;1649355;87;25865;-56
2023/03/17 11:25:11;;;;;;;9.25;4.58;;;;;;;;;;1647137;87;25452;-56
2023/03/17 11:27:48;;;;;;;7.50;4.50;;;;;;;;;;1652865;86;25481;-57
2023/03/17 11:30:36;;;;;;;6.47;4.17;;;;;;;;;;1647353;87;27586;-57
2023/03/17 11:33:29;;;;;;;33.93;19.37;;;;;;;;;;1647435;87;27228;-56
2023/03/17 11:36:12;;;;;;;5.80;4.35;;;;;;;;;;1647533;86;25505;-54
2023/03/17 11:38:43;;;;;;;6.60;4.05;;;;;;;;;;1647388;87;25567;-55
2023/03/17 11:41:23;;;;;;;8.13;3.85;;;;;;;;;;1727817;82;25548;-52
2023/03/17 11:44:06;;;;;;;9.95;4.50;;;;;;;;;;1746593;82;27443;-57
2023/03/17 11:46:53;;;;;;;6.90;4.30;;;;;;;;;;1747973;82;25845;-55
2023/03/17 11:49:33;;;;;;;8.68;4.22;;;;;;;;;;1746999;82;25398;-54
2023/03/17 11:52:29;;;;;;;6.28;4.30;;;;;;;;;;1742311;81;25733;-56
2023/03/17 11:55:06;;;;;;;6.25;3.75;;;;;;;;;;1743225;81;25498;-58
2023/03/17 11:57:38;;;;;;;10.17;5.37;;;;;;;;;;1743267;81;27387;-58
2023/03/17 12:00:14;;;;;;;7.25;4.15;;;;;;;;;;1702233;84;25562;-55
2023/03/17 12:02:57;;;;;;;10.75;4.40;;;;;;;;;;1645608;86;25436;-57
2023/03/17 12:05:28;;;;;;;6.15;3.70;;;;;;;;;;1737008;82;25508;-53
2023/03/17 12:08:00;;;;;;;6.37;3.75;;;;;;;;;;1742465;82;25503;-55
2023/03/17 12:10:42;;;;;;;7.78;4.05;;;;;;;;;;1742902;82;27812;-56
2023/03/17 12:13:31;;;;;;;13.18;4.83;;;;;;;;;;1742401;82;25584;-55
2023/03/17 12:16:11;;;;;;;9.08;4.22;;;;;;;;;;1742772;81;25073;-53
2023/03/17 12:19:04;;;;;;;8.03;4.45;;;;;;;;;;1742274;81;26189;-52
2023/03/17 12:21:38;;;;;;;11.90;4.47;;;;;;;;;;1743123;81;25510;-55
2023/03/17 12:24:36;;;;;;;9.48;4.65;;;;;;;;;;1720830;82;27719;-53
2023/03/17 12:27:12;;;;;;;10.53;5.78;;;;;;;;;;1672813;85;25361;-56
2023/03/17 12:29:58;;;;;;;9.05;3.80;;;;;;;;;;1664330;85;25598;-55
2023/03/17 12:32:39;;;;;;;8.20;4.60;;;;;;;;;;1673894;85;25577;-55
2023/03/17 12:35:35;;;;;;;51.63;47.40;;;;;;;;;;1651649;86;25485;-56
2023/03/17 14:01:06;;;;;;;10.60;6.70;;;;;;;10.80;34.35;100988.23;1868292;76;25437;-57
2023/03/17 14:03:49;;;;;;;11.25;6.67;;;;;;;10.49;35.21;100972.44;1756465;81;25665;-53
2023/03/17 14:06:20;;;;;;;14.23;7.53;;;;;;;10.32;34.39;100975.64;1770046;81;27458;-55
2023/03/17 14:09:04;;;;;;;52.48;48.00;;;;;;;10.09;35.15;100973.17;1756915;81;25572;-55
2023/03/17 14:11:39;;;;;;;13.05;7.40;;;;;;;9.90;35.75;100969.08;1745779;80;25460;-51
2023/03/17 14:14:47;;;;;;;13.75;7.30;;;;;;;9.77;35.96;100972.46;1777076;80;25468;-56
2023/03/17 14:17:25;;;;;;;15.43;8.40;;;;;;;9.68;36.13;100960.13;1687597;85;25524;-55
2023/03/17 14:20:19;;;;;;;83.78;77.65;;;;;;;9.55;36.36;100944.05;1687241;85;27514;-55
2023/03/17 14:22:53;;;;;;;87.45;80.97;;;;;;;9.44;36.56;100954.70;1687254;84;26222;-55
2023/03/17 14:25:25;;;;;;;60.17;55.43;;;;;;;9.31;36.83;100948.06;1687359;85;25497;-54
2023/03/17 14:27:55;;;;;;;83.25;76.97;;;;;;;9.20;36.99;100946.56;1687307;85;25775;-56
2023/03/17 14:30:28;;;;;;;84.58;77.82;;;;;;;9.14;37.37;100943.08;1687371;85;25562;-56
2023/03/17 14:33:20;;;;;;;14.38;6.80;;;;;;;9.04;37.30;100935.90;1687360;85;28345;-55
2023/03/17 14:35:51;;;;;;;16.15;6.78;;;;;;;8.95;37.04;100942.97;1663757;85;25526;-54
2023/03/17 14:38:23;;;;;;;32.20;29.25;;;;;;;8.85;37.29;100941.70;1687323;85;25678;-56
2023/03/17 14:41:00;;;;;;;17.80;13.53;;;;;;;8.74;37.26;100942.33;1687292;85;25660;-57
2023/03/17 14:43:26;;;;;;;60.50;55.90;;;;;;;8.69;37.62;100950.45;1680535;85;25619;-52
2023/03/17 14:46:07;;;;;;;87.88;81.25;;;;;;;8.57;37.78;100936.76;1687300;85;27719;-54
2023/03/17 14:48:38;;;;;;;86.78;80.20;;;;;;;8.52;38.01;100942.19;1743338;80;25707;-54
2023/03/17 14:51:18;;;;;;;84.85;78.42;;;;;;;8.51;38.35;100939.77;1756942;81;25638;-51
2023/03/17 14:53:45;;;;;;;82.75;76.50;;;;;;;8.54;38.60;100927.08;1777076;80;25377;-53
2023/03/17 14:56:14;;;;;;;78.37;72.78;;;;;;;8.54;38.64;100925.18;1777026;80;25630;-51
2023/03/17 14:58:50;;;;;;;89.05;82.02;;;;;;;8.55;38.59;100929.50;1777021;79;27585;-51
2023/03/17 15:01:38;;;;;;;28.98;12.05;;;;;;;8.56;38.46;100924.91;1746283;80;25623;-55
2023/03/17 15:04:12;;;;;;;13.40;6.80;;;;;;;8.60;38.63;100940.25;1776724;80;25582;-52
2023/03/17 15:06:56;;;;;;;13.78;7.00;;;;;;;8.57;38.51;100940.81;1776987;80;25739;-51
2023/03/17 15:09:40;;;;;;;12.10;6.28;;;;;;;8.59;38.38;100942.67;1776983;80;25579;-54
2023/03/17 15:12:27;;;;;;;12.47;9.35;;;;;;;8.55;38.58;100940.28;1756409;81;29708;-50
2023/03/17 15:15:07;;;;;;;10.75;6.42;;;;;;;8.50;38.45;100937.63;1741995;81;25620;-51
2023/03/17 15:17:37;;;;;;;24.23;21.33;;;;;;;8.43;38.43;100918.26;1725022;83;25466;-50
2023/03/17 15:20:13;;;;;;;23.10;9.83;;;;;;;8.34;38.50;100918.02;1745760;82;26110;-50
2023/03/17 15:23:06;;;;;;;19.92;11.85;;;;;;;8.28;38.72;100921.81;1745721;82;25653;-53
2023/03/17 15:25:43;;;;;;;68.57;63.85;;;;;;;8.28;38.87;100911.58;1745428;82;27568;-53
2023/03/17 15:28:16;;;;;;;86.53;80.22;;;;;;;8.24;38.91;100908.64;1745648;81;25448;-52
2023/03/17 15:30:45;;;;;;;87.50;81.10;;;;;;;8.22;39.01;100910.78;1726274;83;25408;-50
2023/03/17 15:33:31;;;;;;;;;;;;;;;8.18;39.16;100900.30;1742410;82;25559;-50
2023/03/17 15:35:59;;;;;;;85.03;79.05;;;;;;;8.20;39.36;100905.66;1739923;82;25644;-53
2023/03/17 15:38:25;;;;;;;85.38;78.83;;;;;;;8.19;39.53;100900.03;1726205;83;27567;-51
2023/03/17 15:40:53;;;;;;;83.35;77.12;;;;;;;8.17;39.42;100893.30;1739808;82;25563;-50
2023/03/17 15:43:22;;;;;;;83.03;76.90;;;;;;;8.14;39.65;100887.11;1726203;83;25476;-50
2023/03/17 15:45:59;;;;;;;79.40;73.30;;;;;;;8.14;39.97;100881.72;1745601;82;25642;-50
2023/03/17 15:48:30;;;;;;;60.40;55.15;;;;;;;8.20;39.76;100894.89;1745209;82;25649;-51
2023/03/17 15:51:00;;;;;;;84.23;77.70;;;;;;;8.20;39.59;100907.56;1726250;83;28042;-52